Flight Track Log - Related Links

Times and Time Zones

All times are in EDT time to prevent confusion due to time zone crossing. See the CTL61 flight status page for this flight to view local times or setup timezone preferences in your user account.

Time Position Orientation Groundspeed Altitude Reporting Facility
EDT Latitude Longitude Course Direction KTS MPH feet Rate Location/Type
Fri 11:46:17 PM 38.4375 -81.6722 329° Northwest 127 146 3,900  Level Indianapolis Center
Fri 11:47:18 PM 38.4686 -81.6972 328° Northwest 130 150 4,500 689 Climbing Indianapolis Center
Fri 11:48:19 PM 38.4986 -81.7222 327° Northwest 130 150 5,300 689 Climbing Indianapolis Center
Fri 11:49:00 PM 38.5786 -81.7638 327° Northwest  Level FlightAware Approximate
Fri 11:49:20 PM 38.5286 -81.7481 326° Northwest 128 147 5,900  Level Indianapolis Center
Fri 11:50:00 PM 38.6141 -81.7938 327° Northwest  Level FlightAware Approximate
Fri 11:50:21 PM 38.5628 -81.7767 327° Northwest 144 166 6,100  Level Indianapolis Center
Fri 11:51:22 PM 38.6072 -81.8150 326° Northwest 159 183 5,900 -98 Descending Indianapolis Center
Fri 11:52:23 PM 38.6453 -81.8472 327° Northwest 163 188 5,900 49 Level Indianapolis Center
Fri 11:53:24 PM 38.6844 -81.8783 328° Northwest 164 189 6,000 49 Climbing Indianapolis Center
Fri 11:54:25 PM 38.7231 -81.9094 328° Northwest 163 188 6,000  Level Indianapolis Center
Fri 11:55:25 PM 38.7628 -81.9383 330° Northwest 164 189 6,000  Level Indianapolis Center
Fri 11:56:26 PM 38.8033 -81.9661 332° Northwest 164 189 6,000  Level Indianapolis Center
Fri 11:57:27 PM 38.8436 -81.9936 332° Northwest 164 189 6,000  Level Indianapolis Center
Fri 11:58:28 PM 38.8822 -82.0250 328° Northwest 164 189 6,000  Level Indianapolis Center
Fri 11:59:29 PM 38.9181 -82.0608 322° Northwest 163 188 6,000 -49 Level Indianapolis Center
Sat 12:00:30 AM 38.9547 -82.0933 325° Northwest 161 185 5,900 -49 Descending Indianapolis Center
Sat 12:01:31 AM 38.9928 -82.1256 327° Northwest 163 188 5,900  Level Indianapolis Center
Sat 12:02:31 AM 39.0308 -82.1556 329° Northwest 162 186 5,900  Level Indianapolis Center
Sat 12:03:32 AM 39.0686 -82.1900 325° Northwest 166 191 5,900 49 Level Indianapolis Center
Sat 12:04:33 AM 39.1050 -82.2217 326° Northwest 158 182 6,000 98 Climbing Indianapolis Center
Sat 12:05:34 AM 39.1428 -82.2531 327° Northwest 161 185 6,100  Climbing Indianapolis Center
Sat 12:06:35 AM 39.1797 -82.2856 326° Northwest 160 184 6,000 -98 Descending Indianapolis Center
Sat 12:07:36 AM 39.2175 -82.3167 327° Northwest 162 186 5,900  Descending Indianapolis Center
Sat 12:08:36 AM 39.2544 -82.3500 325° Northwest 161 185 6,000 50 Climbing Indianapolis Center
Sat 12:09:36 AM 39.2969 -82.3847 328° Northwest 159 183 6,000  Level Indianapolis Center
Sat 12:10:31 AM 39.3300 -82.4142 325° Northwest 156 180 6,000  Level Indianapolis Center
Sat 12:11:32 AM 39.3669 -82.4467 326° Northwest 157 181 6,000 50 Level Indianapolis Center
Sat 12:12:32 AM 39.4036 -82.4794 325° Northwest 162 186 6,100 -50 Climbing Indianapolis Center
Sat 12:13:33 AM 39.4406 -82.5122 326° Northwest 163 188 5,900  Descending Indianapolis Center
Sat 12:14:41 AM 39.4844 -82.5489 327° Northwest 164 189 6,100 52 Climbing Indianapolis Center
Sat 12:15:28 AM 39.5125 -82.5747 325° Northwest 159 183 6,000 -56 Descending Indianapolis Center
Sat 12:16:29 AM 39.5497 -82.6047 328° Northwest 161 185 6,000 -50 Level Indianapolis Center
Sat 12:17:29 AM 39.5867 -82.6375 326° Northwest 161 185 5,900  Descending Indianapolis Center
Sat 12:18:36 AM 39.6292 -82.6767 325° Northwest 160 184 6,000 47 Climbing Indianapolis Center
Sat 12:19:36 AM 39.6661 -82.7069 328° Northwest 160 184 6,000  Level Indianapolis Center
Sat 12:20:37 AM 39.7031 -82.7400 325° Northwest 161 185 6,000  Level Indianapolis Center
Sat 12:21:38 AM 39.7422 -82.7706 329° Northwest 162 186 6,000  Level Indianapolis Center
Sat 12:22:38 AM 39.7769 -82.8033 324° Northwest 157 181 6,000 -369 Level Indianapolis Center
Sat 12:23:48 AM 39.8228 -82.8453 325° Northwest 173 199 5,200 -694 Descending Indianapolis Center
Sat 12:24:39 AM 39.8622 -82.8794 326° Northwest 187 215 4,600 -696 Descending Indianapolis Center
Sat 12:25:40 AM 39.9028 -82.9158 325° Northwest 179 206 3,900 -281 Descending Indianapolis Center
Sat 12:26:47 AM 39.9436 -82.9497 328° Northwest 151 174 4,000 52 Climbing Indianapolis Center
Sat 12:27:35 AM 39.9744 -82.9575 349° North 151 174 4,000 -110 Level Indianapolis Center
Sat 12:28:36 AM 40.0189 -82.9536 North 152 175 3,800 -197 Descending Indianapolis Center
Sat 12:30:00 AM 40.0379 -83.0125 293° West  Level FlightAware Approximate
Sat 12:37:00 AM 40.0667 -83.0667 323° Northwest  Level FlightAware Approximate
Sat 12:38:00 AM 40.0798 -83.0732 323° Northwest  Level Estimated
Sat 12:39:00 AM 40.0798 -83.0732 323° Northwest  Level Estimated

Login

Don't have an account? Register now (free) for customized features, flight alerts, and more!